createdAt,value
2023-04-16T00:00:24.603Z,94142.00
2023-04-16T00:01:24.632Z,94144.00
2023-04-16T00:02:24.770Z,94142.00
2023-04-16T00:03:24.899Z,94142.00
2023-04-16T00:04:24.748Z,94146.00
2023-04-16T00:05:24.726Z,94144.00
2023-04-16T00:06:24.772Z,94144.00
2023-04-16T00:07:24.765Z,94144.00
2023-04-16T00:08:24.826Z,94142.00
2023-04-16T00:09:24.825Z,94146.00
2023-04-16T00:10:24.827Z,94148.00
2023-04-16T00:11:24.850Z,94144.00
2023-04-16T00:12:24.891Z,94146.00
2023-04-16T00:13:24.912Z,94148.00
2023-04-16T00:14:24.934Z,94148.00
2023-04-16T00:15:24.941Z,94146.00
2023-04-16T00:16:25.032Z,94148.00
2023-04-16T00:17:25.028Z,94150.00
2023-04-16T00:18:25.015Z,94150.00
2023-04-16T00:19:25.064Z,94152.00
2023-04-16T00:20:25.065Z,94154.00
2023-04-16T00:21:25.097Z,94154.00
2023-04-16T00:22:25.140Z,94152.00
2023-04-16T00:23:25.171Z,94150.00
2023-04-16T00:24:25.174Z,94154.00
2023-04-16T00:25:25.215Z,94152.00
2023-04-16T00:26:25.230Z,94150.00
2023-04-16T00:27:25.275Z,94150.00
2023-04-16T00:28:25.292Z,94150.00
2023-04-16T00:29:25.313Z,94148.00
2023-04-16T00:30:25.327Z,94146.00
2023-04-16T00:31:25.407Z,94146.00
2023-04-16T00:32:25.371Z,94148.00
2023-04-16T00:33:25.390Z,94148.00
2023-04-16T00:34:25.412Z,94148.00
2023-04-16T00:35:25.441Z,94152.00
2023-04-16T00:36:25.465Z,94150.00
2023-04-16T00:37:25.501Z,94150.00
2023-04-16T00:38:25.513Z,94150.00
2023-04-16T00:39:25.555Z,94152.00
2023-04-16T00:40:25.588Z,94148.00
2023-04-16T00:41:25.645Z,94150.00
2023-04-16T00:42:25.621Z,94148.00
2023-04-16T00:43:25.639Z,94150.00
2023-04-16T00:44:25.661Z,94152.00
2023-04-16T00:45:25.704Z,94152.00
2023-04-16T00:46:25.821Z,94154.00
2023-04-16T00:47:25.750Z,94156.00
2023-04-16T00:48:25.752Z,94156.00
2023-04-16T00:49:25.791Z,94161.00
2023-04-16T00:50:25.814Z,94158.00
2023-04-16T00:51:25.922Z,94158.00
2023-04-16T00:52:25.852Z,94159.00
2023-04-16T00:53:25.884Z,94158.00
2023-04-16T00:54:25.910Z,94156.00
2023-04-16T00:55:25.935Z,94156.00
2023-04-16T00:56:25.973Z,94158.00
2023-04-16T00:57:25.977Z,94158.00
2023-04-16T00:58:26.007Z,94159.00
2023-04-16T00:59:26.035Z,94158.00
2023-04-16T01:00:26.081Z,94161.00
2023-04-16T01:01:26.137Z,94159.00
2023-04-16T01:02:26.214Z,94161.00
2023-04-16T01:03:26.212Z,94161.00
2023-04-16T01:04:26.241Z,94161.00
2023-04-16T01:05:26.201Z,94161.00
2023-04-16T01:06:26.226Z,94161.00
2023-04-16T01:07:26.242Z,94163.00
2023-04-16T01:08:26.271Z,94163.00
2023-04-16T01:09:26.315Z,94161.00
2023-04-16T01:10:26.345Z,94163.00
2023-04-16T01:11:26.365Z,94163.00
2023-04-16T01:12:26.400Z,94161.00
2023-04-16T01:13:26.430Z,94161.00
2023-04-16T01:14:26.428Z,94161.00
2023-04-16T01:15:26.471Z,94161.00
2023-04-16T01:16:26.551Z,94161.00
2023-04-16T01:17:26.530Z,94163.00
2023-04-16T01:18:26.546Z,94161.00
2023-04-16T01:19:26.596Z,94163.00
2023-04-16T01:20:26.637Z,94163.00
2023-04-16T01:21:26.662Z,94163.00
2023-04-16T01:22:26.694Z,94163.00
2023-04-16T01:23:26.721Z,94165.00
2023-04-16T01:24:26.772Z,94163.00
2023-04-16T01:25:26.781Z,94165.00
2023-04-16T01:26:26.807Z,94165.00
2023-04-16T01:27:26.824Z,94165.00
2023-04-16T01:28:26.841Z,94165.00
2023-04-16T01:29:26.880Z,94163.00
2023-04-16T01:30:26.902Z,94165.00
2023-04-16T01:31:26.968Z,94165.00
2023-04-16T01:32:26.978Z,94163.00
2023-04-16T01:33:26.988Z,94163.00
2023-04-16T01:34:26.996Z,94167.00
2023-04-16T01:35:27.041Z,94167.00
2023-04-16T01:36:27.048Z,94169.00
2023-04-16T01:37:27.081Z,94169.00
2023-04-16T01:38:27.125Z,94169.00
2023-04-16T01:39:27.139Z,94167.00
2023-04-16T01:40:27.148Z,94169.00
2023-04-16T01:41:27.205Z,94171.00
2023-04-16T01:42:27.212Z,94169.00
2023-04-16T01:43:27.229Z,94175.00
2023-04-16T01:44:27.252Z,94175.00
2023-04-16T01:45:27.271Z,94175.00
2023-04-16T01:46:27.341Z,94179.00
2023-04-16T01:47:27.352Z,94177.00
2023-04-16T01:48:27.342Z,94175.00
2023-04-16T01:49:27.390Z,94181.00
2023-04-16T01:50:27.422Z,94181.00
2023-04-16T01:51:27.427Z,94181.00
2023-04-16T01:52:27.454Z,94183.00
2023-04-16T01:53:27.479Z,94181.00
2023-04-16T01:54:27.499Z,94179.00
2023-04-16T01:55:27.528Z,94183.00
2023-04-16T01:56:27.540Z,94183.00
2023-04-16T01:57:27.593Z,94183.00
2023-04-16T01:58:27.594Z,94181.00
2023-04-16T01:59:27.614Z,94185.00
2023-04-16T02:00:27.646Z,94185.00
2023-04-16T02:01:27.767Z,94185.00
2023-04-16T02:02:27.848Z,94183.00
2023-04-16T02:03:27.796Z,94183.00
2023-04-16T02:04:27.723Z,94181.00
2023-04-16T02:05:27.753Z,94181.00
2023-04-16T02:06:27.772Z,94183.00
2023-04-16T02:07:27.792Z,94183.00
2023-04-16T02:08:27.809Z,94185.00
2023-04-16T02:09:27.857Z,94185.00
2023-04-16T02:10:27.860Z,94189.00
2023-04-16T02:11:27.879Z,94189.00
2023-04-16T02:12:27.982Z,94187.00
2023-04-16T02:13:27.935Z,94187.00
2023-04-16T02:14:27.963Z,94189.00
2023-04-16T02:15:28.005Z,94189.00
2023-04-16T02:16:28.026Z,94189.00
2023-04-16T02:17:28.128Z,94193.00
2023-04-16T02:18:28.082Z,94189.00
2023-04-16T02:19:28.087Z,94191.00
2023-04-16T02:20:28.120Z,94193.00
2023-04-16T02:21:28.152Z,94193.00
2023-04-16T02:22:28.170Z,94193.00
2023-04-16T02:23:28.212Z,94197.00
2023-04-16T02:24:28.240Z,94197.00
2023-04-16T02:25:28.269Z,94195.00
2023-04-16T02:26:28.309Z,94197.00
2023-04-16T02:27:28.322Z,94197.00
2023-04-16T02:28:28.346Z,94193.00
2023-04-16T02:29:28.357Z,94193.00
2023-04-16T02:30:28.379Z,94195.00
2023-04-16T02:31:28.443Z,94195.00
2023-04-16T02:32:28.449Z,94195.00
2023-04-16T02:33:28.473Z,94195.00
2023-04-16T02:34:28.494Z,94195.00
2023-04-16T02:35:28.514Z,94195.00
2023-04-16T02:36:28.518Z,94195.00
2023-04-16T02:37:28.533Z,94197.00
2023-04-16T02:38:28.575Z,94197.00
2023-04-16T02:39:28.589Z,94195.00
2023-04-16T02:40:28.614Z,94199.00
2023-04-16T02:41:28.652Z,94199.00
2023-04-16T02:42:28.656Z,94199.00
2023-04-16T02:43:28.714Z,94199.00
2023-04-16T02:44:28.722Z,94201.00
2023-04-16T02:45:28.751Z,94203.00
2023-04-16T02:46:28.931Z,94205.00
2023-04-16T02:47:28.886Z,94205.00
2023-04-16T02:48:28.828Z,94205.00
2023-04-16T02:49:28.850Z,94205.00
2023-04-16T02:50:28.866Z,94207.00
2023-04-16T02:51:28.909Z,94209.00
2023-04-16T02:52:28.931Z,94209.00
2023-04-16T02:53:28.973Z,94211.00
2023-04-16T02:54:28.975Z,94211.00
2023-04-16T02:55:29.007Z,94211.00
2023-04-16T02:56:29.026Z,94211.00
2023-04-16T02:57:29.056Z,94211.00
2023-04-16T02:58:29.082Z,94209.00
2023-04-16T02:59:29.157Z,94211.00
2023-04-16T03:00:29.142Z,94211.00
2023-04-16T03:01:29.261Z,94211.00
2023-04-16T03:02:29.293Z,94211.00
2023-04-16T03:03:29.229Z,94213.00
2023-04-16T03:04:29.289Z,94213.00
2023-04-16T03:05:29.293Z,94209.00
2023-04-16T03:06:29.304Z,94214.00
2023-04-16T03:07:29.309Z,94213.00
2023-04-16T03:08:29.346Z,94213.00
2023-04-16T03:09:29.357Z,94213.00
2023-04-16T03:10:29.398Z,94214.00
2023-04-16T03:11:29.436Z,94213.00
2023-04-16T03:12:29.452Z,94213.00
2023-04-16T03:13:29.486Z,94214.00
2023-04-16T03:14:29.501Z,94213.00
2023-04-16T03:15:29.586Z,94214.00
2023-04-16T03:16:29.552Z,94216.00
2023-04-16T03:17:29.613Z,94214.00
2023-04-16T03:18:29.591Z,94214.00
2023-04-16T03:19:29.607Z,94214.00
2023-04-16T03:20:29.644Z,94214.00
2023-04-16T03:21:29.673Z,94216.00
2023-04-16T03:22:29.705Z,94218.00
2023-04-16T03:23:29.730Z,94220.00
2023-04-16T03:24:29.792Z,94220.00
2023-04-16T03:25:29.785Z,94220.00
2023-04-16T03:26:29.791Z,94222.00
2023-04-16T03:27:29.818Z,94222.00
2023-04-16T03:28:29.857Z,94222.00
2023-04-16T03:29:29.865Z,94222.00
2023-04-16T03:30:29.889Z,94220.00
2023-04-16T03:31:29.951Z,94220.00
2023-04-16T03:32:29.954Z,94220.00
2023-04-16T03:33:29.990Z,94218.00
2023-04-16T03:34:30.021Z,94220.00
2023-04-16T03:35:30.042Z,94222.00
2023-04-16T03:36:30.046Z,94222.00
2023-04-16T03:37:30.083Z,94220.00
2023-04-16T03:38:30.100Z,94224.00
2023-04-16T03:39:30.145Z,94222.00
2023-04-16T03:40:30.151Z,94222.00
2023-04-16T03:41:30.168Z,94222.00
2023-04-16T03:42:30.213Z,94224.00
2023-04-16T03:43:30.219Z,94220.00
2023-04-16T03:44:30.236Z,94220.00
2023-04-16T03:45:30.265Z,94222.00
2023-04-16T03:46:30.328Z,94218.00
2023-04-16T03:47:30.351Z,94226.00
2023-04-16T03:48:30.379Z,94224.00
2023-04-16T03:49:30.394Z,94228.00
2023-04-16T03:50:30.413Z,94232.00
2023-04-16T03:51:30.430Z,94232.00
2023-04-16T03:52:30.461Z,94228.00
2023-04-16T03:53:30.517Z,94232.00
2023-04-16T03:54:30.529Z,94234.00
2023-04-16T03:55:30.591Z,94232.00
2023-04-16T03:56:30.611Z,94236.00
2023-04-16T03:57:30.626Z,94234.00
2023-04-16T03:58:30.644Z,94236.00
2023-04-16T03:59:30.675Z,94236.00
2023-04-16T04:00:30.719Z,94238.00
2023-04-16T04:01:30.761Z,94238.00
2023-04-16T04:02:30.871Z,94236.00
2023-04-16T04:03:31.113Z,94240.00
2023-04-16T04:04:30.963Z,94242.00
2023-04-16T04:05:30.815Z,94242.00
2023-04-16T04:06:30.862Z,94242.00
2023-04-16T04:07:30.874Z,94242.00
2023-04-16T04:08:30.912Z,94242.00
2023-04-16T04:09:30.945Z,94238.00
2023-04-16T04:10:30.946Z,94240.00
2023-04-16T04:11:30.987Z,94244.00
2023-04-16T04:12:30.983Z,94242.00
2023-04-16T04:13:31.062Z,94246.00
2023-04-16T04:14:31.043Z,94244.00
2023-04-16T04:15:31.066Z,94246.00
2023-04-16T04:16:31.127Z,94248.00
2023-04-16T04:17:31.175Z,94250.00
2023-04-16T04:18:31.134Z,94252.00
2023-04-16T04:19:31.170Z,94248.00
2023-04-16T04:20:31.196Z,94252.00
2023-04-16T04:21:31.224Z,94254.00
2023-04-16T04:22:31.253Z,94252.00
2023-04-16T04:23:31.278Z,94254.00
2023-04-16T04:24:31.280Z,94254.00
2023-04-16T04:25:31.323Z,94254.00
2023-04-16T04:26:31.411Z,94256.00
2023-04-16T04:27:31.357Z,94252.00
2023-04-16T04:28:31.392Z,94254.00
2023-04-16T04:29:31.394Z,94258.00
2023-04-16T04:30:31.436Z,94258.00
2023-04-16T04:31:31.516Z,94260.00
2023-04-16T04:32:31.495Z,94265.00
2023-04-16T04:33:31.504Z,94261.00
2023-04-16T04:34:31.523Z,94263.00
2023-04-16T04:35:31.556Z,94261.00
2023-04-16T04:36:31.604Z,94263.00
2023-04-16T04:37:31.608Z,94261.00
2023-04-16T04:38:31.636Z,94261.00
2023-04-16T04:39:31.664Z,94258.00
2023-04-16T04:40:31.697Z,94261.00
2023-04-16T04:41:31.715Z,94261.00
2023-04-16T04:42:31.747Z,94263.00
2023-04-16T04:43:31.788Z,94265.00
2023-04-16T04:44:31.803Z,94267.00
2023-04-16T04:45:32.182Z,94269.00
2023-04-16T04:46:31.860Z,94267.00
2023-04-16T04:47:31.925Z,94271.00
2023-04-16T04:48:31.936Z,94269.00
2023-04-16T04:49:31.951Z,94269.00
2023-04-16T04:50:31.975Z,94273.00
2023-04-16T04:51:32.021Z,94273.00
2023-04-16T04:52:32.064Z,94275.00
2023-04-16T04:53:32.077Z,94275.00
2023-04-16T04:54:32.108Z,94277.00
2023-04-16T04:55:32.127Z,94277.00
2023-04-16T04:56:32.167Z,94277.00
2023-04-16T04:57:32.206Z,94279.00
2023-04-16T04:58:32.200Z,94279.00
2023-04-16T04:59:32.244Z,94277.00
2023-04-16T05:00:32.274Z,94277.00
2023-04-16T05:01:32.322Z,94279.00
2023-04-16T05:02:32.372Z,94277.00
2023-04-16T05:03:32.422Z,94275.00
2023-04-16T05:04:32.371Z,94275.00
2023-04-16T05:05:32.409Z,94279.00
2023-04-16T05:06:32.432Z,94279.00
2023-04-16T05:07:32.487Z,94277.00
2023-04-16T05:08:32.492Z,94279.00
2023-04-16T05:09:32.522Z,94275.00
2023-04-16T05:10:32.582Z,94277.00
2023-04-16T05:11:32.571Z,94279.00
2023-04-16T05:12:32.611Z,94279.00
2023-04-16T05:13:32.621Z,94279.00
2023-04-16T05:14:32.688Z,94273.00
2023-04-16T05:15:32.694Z,94279.00
2023-04-16T05:16:32.736Z,94277.00
2023-04-16T05:17:32.781Z,94281.00
2023-04-16T05:18:32.797Z,94283.00
2023-04-16T05:19:32.794Z,94285.00
2023-04-16T05:20:32.820Z,94283.00
2023-04-16T05:21:32.845Z,94285.00
2023-04-16T05:22:32.887Z,94287.00
2023-04-16T05:23:32.906Z,94291.00
2023-04-16T05:24:32.928Z,94289.00
2023-04-16T05:25:32.957Z,94293.00
2023-04-16T05:26:32.988Z,94295.00
2023-04-16T05:27:33.008Z,94295.00
2023-04-16T05:28:33.048Z,94297.00
2023-04-16T05:29:33.096Z,94297.00
2023-04-16T05:30:33.102Z,94301.00
2023-04-16T05:31:33.100Z,94301.00
2023-04-16T05:32:33.141Z,94301.00
2023-04-16T05:33:33.141Z,94305.00
2023-04-16T05:34:33.151Z,94307.00
2023-04-16T05:35:33.175Z,94307.00
2023-04-16T05:36:33.187Z,94310.00
2023-04-16T05:37:33.220Z,94308.00
2023-04-16T05:38:33.255Z,94312.00
2023-04-16T05:39:33.301Z,94314.00
2023-04-16T05:40:33.314Z,94316.00
2023-04-16T05:41:33.336Z,94312.00
2023-04-16T05:42:33.332Z,94316.00
2023-04-16T05:43:33.368Z,94316.00
2023-04-16T05:44:33.373Z,94318.00
2023-04-16T05:45:33.400Z,94320.00
2023-04-16T05:46:33.527Z,94320.00
2023-04-16T05:47:33.479Z,94322.00
2023-04-16T05:48:33.479Z,94318.00
2023-04-16T05:49:33.519Z,94320.00
2023-04-16T05:50:33.506Z,94322.00
2023-04-16T05:51:33.561Z,94322.00
2023-04-16T05:52:33.566Z,94322.00
2023-04-16T05:53:33.626Z,94324.00
2023-04-16T05:54:33.628Z,94324.00
2023-04-16T05:55:33.654Z,94324.00
2023-04-16T05:56:33.677Z,94322.00
2023-04-16T05:57:33.715Z,94322.00
2023-04-16T05:58:33.732Z,94322.00
2023-04-16T05:59:33.772Z,94322.00
2023-04-16T06:00:33.813Z,94324.00
2023-04-16T06:01:34.475Z,94326.00
2023-04-16T06:02:34.067Z,94328.00
2023-04-16T06:03:34.002Z,94330.00
2023-04-16T06:04:33.918Z,94332.00
2023-04-16T06:05:33.966Z,94334.00
2023-04-16T06:06:33.957Z,94336.00
2023-04-16T06:07:34.006Z,94336.00
2023-04-16T06:08:34.035Z,94336.00
2023-04-16T06:09:34.076Z,94336.00
2023-04-16T06:10:34.079Z,94340.00
2023-04-16T06:11:35.881Z,94342.00
2023-04-16T06:12:34.121Z,94342.00
2023-04-16T06:13:34.133Z,94342.00
2023-04-16T06:14:34.171Z,94344.00
2023-04-16T06:15:34.182Z,94342.00
2023-04-16T06:16:34.324Z,94342.00
2023-04-16T06:17:34.303Z,94342.00
2023-04-16T06:18:34.256Z,94344.00
2023-04-16T06:19:34.287Z,94342.00
2023-04-16T06:20:34.300Z,94344.00
2023-04-16T06:21:34.339Z,94346.00
2023-04-16T06:22:34.399Z,94346.00
2023-04-16T06:23:34.398Z,94350.00
2023-04-16T06:24:34.416Z,94346.00
2023-04-16T06:25:34.466Z,94348.00
2023-04-16T06:26:34.453Z,94346.00
2023-04-16T06:27:34.481Z,94344.00
2023-04-16T06:28:34.512Z,94344.00
2023-04-16T06:29:41.165Z,94344.00
2023-04-16T06:30:35.522Z,94346.00
2023-04-16T06:31:34.535Z,94344.00
2023-04-16T06:32:34.589Z,94346.00
2023-04-16T06:33:34.486Z,94346.00
2023-04-16T06:34:34.507Z,94352.00
2023-04-16T06:35:34.474Z,94350.00
2023-04-16T06:36:34.461Z,94350.00
2023-04-16T06:37:34.457Z,94350.00
2023-04-16T06:38:34.478Z,94354.00
2023-04-16T06:39:34.466Z,94350.00
2023-04-16T06:40:34.440Z,94352.00
2023-04-16T06:41:34.434Z,94352.00
2023-04-16T06:42:34.437Z,94355.00
2023-04-16T06:43:34.429Z,94354.00
2023-04-16T06:44:34.411Z,94352.00
2023-04-16T06:45:34.430Z,94354.00
2023-04-16T06:46:34.474Z,94354.00
2023-04-16T06:47:34.590Z,94354.00
2023-04-16T06:48:34.506Z,94354.00
2023-04-16T06:49:34.514Z,94352.00
2023-04-16T06:50:34.537Z,94352.00
2023-04-16T06:51:34.554Z,94352.00
2023-04-16T06:52:34.573Z,94352.00
2023-04-16T06:53:34.612Z,94352.00
2023-04-16T06:54:34.630Z,94350.00
2023-04-16T06:55:34.636Z,94352.00
2023-04-16T06:56:34.670Z,94354.00
2023-04-16T06:57:36.265Z,94352.00
2023-04-16T06:58:34.690Z,94355.00
2023-04-16T06:59:34.678Z,94355.00
2023-04-16T07:00:34.697Z,94355.00
2023-04-16T07:01:34.745Z,94354.00
2023-04-16T07:02:34.855Z,94355.00
2023-04-16T07:03:34.752Z,94350.00
2023-04-16T07:04:34.634Z,94352.00
2023-04-16T07:05:34.652Z,94350.00
2023-04-16T07:06:34.632Z,94354.00
2023-04-16T07:07:34.609Z,94352.00
2023-04-16T07:08:34.605Z,94352.00
2023-04-16T07:09:34.608Z,94350.00
2023-04-16T07:10:34.586Z,94350.00
2023-04-16T07:11:34.612Z,94355.00
2023-04-16T07:12:34.582Z,94354.00
2023-04-16T07:13:34.570Z,94354.00
2023-04-16T07:14:34.558Z,94354.00
2023-04-16T07:15:34.564Z,94354.00
2023-04-16T07:16:34.617Z,94354.00
2023-04-16T07:17:34.540Z,94355.00
2023-04-16T07:18:34.549Z,94355.00
2023-04-16T07:19:34.546Z,94354.00
2023-04-16T07:20:34.538Z,94352.00
2023-04-16T07:21:34.536Z,94352.00
2023-04-16T07:22:34.521Z,94354.00
2023-04-16T07:23:34.506Z,94354.00
2023-04-16T07:24:34.517Z,94350.00
2023-04-16T07:25:34.486Z,94352.00
2023-04-16T07:26:34.473Z,94352.00
2023-04-16T07:27:34.478Z,94352.00
2023-04-16T07:28:34.463Z,94354.00
2023-04-16T07:29:34.453Z,94352.00
2023-04-16T07:30:34.467Z,94350.00
2023-04-16T07:31:34.476Z,94355.00
2023-04-16T07:32:34.472Z,94354.00
2023-04-16T07:33:34.437Z,94355.00
2023-04-16T07:34:34.423Z,94357.00
2023-04-16T07:35:34.412Z,94359.00
2023-04-16T07:36:34.426Z,94361.00
2023-04-16T07:37:34.397Z,94359.00
2023-04-16T07:38:34.402Z,94361.00
2023-04-16T07:39:34.398Z,94361.00
2023-04-16T07:40:34.394Z,94363.00
2023-04-16T07:41:34.383Z,94363.00
2023-04-16T07:42:34.382Z,94367.00
2023-04-16T07:43:34.373Z,94367.00
2023-04-16T07:44:34.377Z,94369.00
2023-04-16T07:45:34.388Z,94369.00
2023-04-16T07:46:43.548Z,94367.00
2023-04-16T07:47:35.357Z,94369.00
2023-04-16T07:48:34.352Z,94369.00
2023-04-16T07:49:34.338Z,94369.00
2023-04-16T07:50:34.307Z,94373.00
2023-04-16T07:51:34.299Z,94371.00
2023-04-16T07:52:34.303Z,94371.00
2023-04-16T07:53:34.312Z,94371.00
2023-04-16T07:54:34.300Z,94371.00
2023-04-16T07:55:34.309Z,94373.00
2023-04-16T07:56:34.296Z,94373.00
2023-04-16T07:57:34.297Z,94375.00
2023-04-16T07:58:34.272Z,94375.00
2023-04-16T07:59:34.286Z,94385.00
2023-04-16T08:00:34.268Z,94375.00
2023-04-16T08:01:34.250Z,94375.00
2023-04-16T08:02:34.330Z,94377.00
2023-04-16T08:03:34.330Z,94377.00
2023-04-16T08:04:34.368Z,94375.00
2023-04-16T08:05:34.217Z,94373.00
2023-04-16T08:06:34.200Z,94375.00
2023-04-16T08:07:34.903Z,94373.00
2023-04-16T08:08:34.194Z,94377.00
2023-04-16T08:09:34.239Z,94375.00
2023-04-16T08:10:34.249Z,94385.00
2023-04-16T08:11:34.269Z,94377.00
2023-04-16T08:12:34.276Z,94377.00
2023-04-16T08:13:34.286Z,94385.00
2023-04-16T08:14:34.310Z,94385.00
2023-04-16T08:15:34.364Z,94385.00
2023-04-16T08:16:34.327Z,94377.00
2023-04-16T08:17:34.401Z,94377.00
2023-04-16T08:18:34.376Z,94387.00
2023-04-16T08:19:34.380Z,94387.00
2023-04-16T08:20:34.418Z,94389.00
2023-04-16T08:21:34.413Z,94391.00
2023-04-16T08:22:34.443Z,94391.00
2023-04-16T08:23:34.447Z,94391.00
2023-04-16T08:24:34.479Z,94395.00
2023-04-16T08:25:34.486Z,94395.00
2023-04-16T08:26:34.496Z,94397.00
2023-04-16T08:27:34.527Z,94397.00
2023-04-16T08:28:34.540Z,94399.00
2023-04-16T08:29:34.559Z,94401.00
2023-04-16T08:30:34.552Z,94401.00
2023-04-16T08:31:34.628Z,94403.00
2023-04-16T08:32:34.603Z,94401.00
2023-04-16T08:33:34.607Z,94404.00
2023-04-16T08:34:34.619Z,94403.00
2023-04-16T08:35:34.613Z,94404.00
2023-04-16T08:36:34.646Z,94408.00
2023-04-16T08:37:34.651Z,94408.00
2023-04-16T08:38:34.661Z,94408.00
2023-04-16T08:39:34.653Z,94408.00
2023-04-16T08:40:34.679Z,94410.00
2023-04-16T08:41:34.674Z,94412.00
2023-04-16T08:42:34.686Z,94408.00
2023-04-16T08:43:34.688Z,94410.00
2023-04-16T08:44:34.716Z,94406.00
2023-04-16T08:45:34.713Z,94410.00
2023-04-16T08:46:34.766Z,94410.00
2023-04-16T08:47:34.735Z,94410.00
2023-04-16T08:48:34.734Z,94412.00
2023-04-16T08:49:34.720Z,94410.00
2023-04-16T08:50:34.753Z,94418.00
2023-04-16T08:51:34.761Z,94416.00
2023-04-16T08:52:34.748Z,94416.00
2023-04-16T08:53:34.747Z,94416.00
2023-04-16T08:54:34.741Z,94416.00
2023-04-16T08:55:34.764Z,94420.00
2023-04-16T08:56:34.769Z,94418.00
2023-04-16T08:57:34.782Z,94418.00
2023-04-16T08:58:34.774Z,94418.00
2023-04-16T08:59:34.794Z,94420.00
2023-04-16T09:00:34.788Z,94422.00
2023-04-16T09:01:34.860Z,94422.00
2023-04-16T09:02:35.065Z,94422.00
2023-04-16T09:03:36.460Z,94426.00
2023-04-16T09:04:34.879Z,94426.00
2023-04-16T09:05:34.837Z,94428.00
2023-04-16T09:06:34.844Z,94428.00
2023-04-16T09:07:34.831Z,94428.00
2023-04-16T09:08:34.854Z,94432.00
2023-04-16T09:09:34.856Z,94432.00
2023-04-16T09:10:34.872Z,94432.00
2023-04-16T09:11:34.851Z,94432.00
2023-04-16T09:12:34.856Z,94434.00
2023-04-16T09:13:34.878Z,94436.00
2023-04-16T09:14:34.876Z,94436.00
2023-04-16T09:15:35.276Z,94438.00
2023-04-16T09:16:34.910Z,94436.00
2023-04-16T09:17:34.967Z,94436.00
2023-04-16T09:18:34.938Z,94436.00
2023-04-16T09:19:34.915Z,94434.00
2023-04-16T09:20:34.930Z,94436.00
2023-04-16T09:21:34.930Z,94434.00
2023-04-16T09:22:34.947Z,94436.00
2023-04-16T09:23:34.927Z,94438.00
2023-04-16T09:24:34.956Z,94438.00
2023-04-16T09:25:34.966Z,94436.00
2023-04-16T09:26:34.979Z,94438.00
2023-04-16T09:27:34.989Z,94438.00
2023-04-16T09:28:35.004Z,94436.00
2023-04-16T09:29:34.975Z,94436.00
2023-04-16T09:30:35.001Z,94436.00
2023-04-16T09:31:35.086Z,94436.00
2023-04-16T09:32:35.023Z,94440.00
2023-04-16T09:33:35.123Z,94438.00
2023-04-16T09:34:35.022Z,94436.00
2023-04-16T09:35:34.997Z,94436.00
2023-04-16T09:36:35.018Z,94434.00
2023-04-16T09:37:35.006Z,94432.00
2023-04-16T09:38:35.019Z,94432.00
2023-04-16T09:39:35.009Z,94432.00
2023-04-16T09:40:35.065Z,94436.00
2023-04-16T09:41:35.022Z,94432.00
2023-04-16T09:42:35.003Z,94432.00
2023-04-16T09:43:35.026Z,94430.00
2023-04-16T09:44:35.007Z,94430.00
2023-04-16T09:45:35.035Z,94432.00
2023-04-16T09:46:35.096Z,94434.00
2023-04-16T09:47:35.074Z,94432.00
2023-04-16T09:48:35.024Z,94432.00
2023-04-16T09:49:35.013Z,94432.00
2023-04-16T09:50:35.069Z,94432.00
2023-04-16T09:51:35.035Z,94436.00
2023-04-16T09:52:35.043Z,94436.00
2023-04-16T09:53:35.034Z,94434.00
2023-04-16T09:54:35.013Z,94432.00
2023-04-16T09:55:35.040Z,94430.00
2023-04-16T09:56:35.065Z,94430.00
2023-04-16T09:57:35.020Z,94432.00
2023-04-16T09:58:35.032Z,94430.00
2023-04-16T09:59:35.021Z,94432.00
2023-04-16T10:00:35.069Z,94432.00
2023-04-16T10:01:36.087Z,94430.00
2023-04-16T10:02:35.050Z,94432.00
2023-04-16T10:03:35.336Z,94432.00
2023-04-16T10:04:35.041Z,94432.00
2023-04-16T10:05:34.999Z,94434.00
2023-04-16T10:06:34.971Z,94434.00
2023-04-16T10:07:34.963Z,94434.00
2023-04-16T10:08:34.990Z,94434.00
2023-04-16T10:09:34.965Z,94432.00
2023-04-16T10:10:34.966Z,94436.00
2023-04-16T10:11:34.964Z,94434.00
2023-04-16T10:12:34.940Z,94434.00
2023-04-16T10:13:34.937Z,94430.00
2023-04-16T10:14:34.929Z,94432.00
2023-04-16T10:15:34.908Z,94430.00
2023-04-16T10:16:34.939Z,94428.00
2023-04-16T10:17:34.995Z,94426.00
2023-04-16T10:18:34.896Z,94424.00
2023-04-16T10:19:34.900Z,94422.00
2023-04-16T10:20:34.886Z,94422.00
2023-04-16T10:21:34.866Z,94418.00
2023-04-16T10:22:34.875Z,94418.00
2023-04-16T10:23:34.889Z,94416.00
2023-04-16T10:24:34.900Z,94418.00
2023-04-16T10:25:34.915Z,94418.00
2023-04-16T10:26:34.967Z,94418.00
2023-04-16T10:27:34.997Z,94418.00
2023-04-16T10:28:35.061Z,94420.00
2023-04-16T10:29:35.085Z,94416.00
2023-04-16T10:30:35.132Z,94416.00
2023-04-16T10:31:35.129Z,94416.00
2023-04-16T10:32:35.157Z,94414.00
2023-04-16T10:33:35.158Z,94416.00
2023-04-16T10:34:35.171Z,94414.00
2023-04-16T10:35:35.207Z,94414.00
2023-04-16T10:36:35.222Z,94414.00
2023-04-16T10:37:35.251Z,94414.00
2023-04-16T10:38:35.294Z,94414.00
2023-04-16T10:39:35.283Z,94414.00
2023-04-16T10:40:35.309Z,94414.00
2023-04-16T10:41:35.358Z,94418.00
2023-04-16T10:42:35.374Z,94414.00
2023-04-16T10:43:35.407Z,94414.00
2023-04-16T10:44:35.440Z,94418.00
2023-04-16T10:45:35.460Z,94418.00
2023-04-16T10:46:35.586Z,94414.00
2023-04-16T10:47:35.523Z,94416.00
2023-04-16T10:48:46.518Z,94414.00
2023-04-16T10:49:36.543Z,94414.00
2023-04-16T10:50:35.524Z,94414.00
2023-04-16T10:51:35.520Z,94412.00
2023-04-16T10:52:35.515Z,94416.00
2023-04-16T10:53:35.509Z,94418.00
2023-04-16T10:54:35.510Z,94416.00
2023-04-16T10:55:35.481Z,94416.00
2023-04-16T10:56:35.499Z,94414.00
2023-04-16T10:57:35.488Z,94414.00
2023-04-16T10:58:35.521Z,94414.00
2023-04-16T10:59:35.533Z,94414.00
2023-04-16T11:00:35.564Z,94416.00
2023-04-16T11:01:35.630Z,94414.00
2023-04-16T11:02:35.970Z,94416.00
2023-04-16T11:03:35.814Z,94414.00
2023-04-16T11:04:35.832Z,94416.00
2023-04-16T11:05:35.760Z,94416.00
2023-04-16T11:06:35.811Z,94414.00
2023-04-16T11:07:35.852Z,94414.00
2023-04-16T11:08:44.264Z,94412.00
2023-04-16T11:09:36.880Z,94412.00
2023-04-16T11:10:35.858Z,94408.00
2023-04-16T11:11:35.869Z,94410.00
2023-04-16T11:12:35.870Z,94410.00
2023-04-16T11:13:35.839Z,94408.00
2023-04-16T11:14:35.838Z,94410.00
2023-04-16T11:15:35.852Z,94410.00
2023-04-16T11:16:35.817Z,94414.00
2023-04-16T11:17:35.862Z,94408.00
2023-04-16T11:18:35.824Z,94408.00
2023-04-16T11:19:36.809Z,94410.00
2023-04-16T11:20:35.806Z,94408.00
2023-04-16T11:21:35.809Z,94408.00
2023-04-16T11:22:35.831Z,94408.00
2023-04-16T11:23:35.788Z,94412.00
2023-04-16T11:24:35.779Z,94408.00
2023-04-16T11:25:35.776Z,94410.00
2023-04-16T11:26:35.774Z,94412.00
2023-04-16T11:27:35.788Z,94412.00
2023-04-16T11:28:35.801Z,94414.00
2023-04-16T11:29:35.840Z,94414.00
2023-04-16T11:30:35.890Z,94414.00
2023-04-16T11:31:36.014Z,94414.00
2023-04-16T11:32:36.084Z,94416.00
2023-04-16T11:33:36.063Z,94416.00
2023-04-16T11:34:36.123Z,94414.00
2023-04-16T11:35:36.203Z,94418.00
2023-04-16T11:36:36.243Z,94418.00
2023-04-16T11:37:36.358Z,94420.00
2023-04-16T11:38:36.374Z,94418.00
2023-04-16T11:39:36.434Z,94416.00
2023-04-16T11:40:36.517Z,94416.00
2023-04-16T11:41:36.534Z,94420.00
2023-04-16T11:42:36.643Z,94420.00
2023-04-16T11:43:36.686Z,94420.00
2023-04-16T11:44:36.725Z,94422.00